Time;durP1;ratioP1;P1;durP2;ratioP2;P2;SDS_P1;SDS_P2;PMS_P1;PMS_P2;Temp;Humidity;BMP_temperature;BMP_pressure;BME280_temperature;BME280_humidity;BME280_pressure;Samples;Min_cycle;Max_cycle;Signal;HPM_P1;HPM_P2
2022/10/20 00:01:00;;;;;;;13.73;4.70;;;6.50;99.90;;;;;;4973872;28;20062;-86
2022/10/20 00:03:27;;;;;;;17.90;4.77;;;6.40;99.90;;;;;;4954947;28;20058;-86
2022/10/20 00:05:53;;;;;;;12.43;4.80;;;6.40;99.90;;;;;;4975893;28;20047;-85
2022/10/20 00:08:19;;;;;;;13.77;4.77;;;6.40;99.90;;;;;;4958977;28;20126;-86
2022/10/20 00:10:57;;;;;;;13.30;4.30;;;6.40;99.90;;;;;;4979095;28;20102;-85
2022/10/20 00:13:23;;;;;;;13.43;4.30;;;6.40;99.90;;;;;;4983764;28;20050;-86
2022/10/20 00:15:51;;;;;;;11.13;4.03;;;6.40;99.90;;;;;;4959410;28;20150;-86
2022/10/20 00:18:17;;;;;;;13.87;4.67;;;6.40;99.90;;;;;;4959205;28;20487;-85
2022/10/20 00:20:43;;;;;;;13.07;4.20;;;6.50;99.90;;;;;;4959421;28;20105;-86
2022/10/20 00:23:08;;;;;;;11.67;4.27;;;6.30;99.90;;;;;;4975738;28;20046;-86
2022/10/20 00:25:36;;;;;;;14.40;5.00;;;6.30;99.90;;;;;;4976615;28;20126;-86
2022/10/20 00:28:15;;;;;;;12.20;4.50;;;6.40;99.90;;;;;;4959523;28;20043;-86
2022/10/20 00:30:55;;;;;;;10.87;4.10;;;6.60;99.90;;;;;;4958912;28;20047;-86
2022/10/20 00:33:40;;;;;;;11.03;4.40;;;6.00;99.90;;;;;;4959061;28;20106;-86
2022/10/20 00:36:25;;;;;;;10.70;4.53;;;6.70;99.90;;;;;;4958685;28;20141;-86
2022/10/20 00:38:56;;;;;;;12.00;4.63;;;6.20;99.90;;;;;;4976957;28;20074;-85
2022/10/20 00:41:22;;;;;;;11.93;4.43;;;6.20;99.90;;;;;;4976399;28;20049;-86
2022/10/20 00:43:54;;;;;;;10.73;4.47;;;6.10;99.90;;;;;;4976078;28;20047;-86
2022/10/20 00:46:28;;;;;;;12.00;4.30;;;6.10;99.90;;;;;;4984472;28;20051;-85
2022/10/20 00:48:59;;;;;;;14.07;4.93;;;6.10;99.90;;;;;;4960316;28;20057;-86
2022/10/20 00:51:28;;;;;;;12.67;5.30;;;6.10;99.90;;;;;;4957847;28;20051;-86
2022/10/20 00:54:02;;;;;;;11.70;4.50;;;6.10;99.90;;;;;;4959034;28;20051;-86
2022/10/20 00:56:28;;;;;;;11.73;4.50;;;6.00;99.90;;;;;;4976060;28;20050;-85
2022/10/20 00:58:56;;;;;;;12.43;4.20;;;6.00;99.90;;;;;;4966485;23;20055;-86
2022/10/20 01:01:22;;;;;;;11.83;4.40;;;6.00;99.90;;;;;;4976062;28;20086;-86
2022/10/20 01:03:50;;;;;;;14.70;4.53;;;6.00;99.90;;;;;;4981960;23;20519;-86
2022/10/20 01:06:18;;;;;;;12.73;4.57;;;6.00;99.90;;;;;;4974875;28;20495;-86
2022/10/20 01:08:43;;;;;;;13.83;4.80;;;5.90;99.90;;;;;;4975077;28;20050;-86
2022/10/20 01:11:17;;;;;;;14.27;5.40;;;5.90;99.90;;;;;;4974876;28;20053;-86
2022/10/20 01:14:01;;;;;;;11.38;4.60;;;5.90;99.90;;;;;;4975184;28;20046;-86
2022/10/20 01:16:51;;;;;;;11.93;4.38;;;5.90;99.90;;;;;;4973852;28;20185;-86
2022/10/20 01:19:57;;;;;;;11.73;4.30;;;5.80;99.90;;;;;;4980369;23;20427;-86
2022/10/20 01:22:53;;;;;;;12.67;4.80;;;5.80;99.90;;;;;;4981222;28;20042;-85
2022/10/20 01:25:45;;;;;;;11.43;4.53;;;5.70;99.90;;;;;;4977716;28;20042;-86
2022/10/20 01:28:32;;;;;;;12.00;4.60;;;5.70;99.90;;;;;;4974080;28;20046;-86
2022/10/20 01:31:00;;;;;;;12.17;4.67;;;5.60;99.90;;;;;;4974378;28;20486;-86
2022/10/20 01:33:26;;;;;;;11.60;4.90;;;5.60;99.90;;;;;;4973503;28;20050;-86
2022/10/20 01:36:09;;;;;;;12.30;5.00;;;5.50;99.90;;;;;;4974275;28;20570;-86
2022/10/20 01:38:56;;;;;;;15.13;5.03;;;5.50;99.90;;;;;;4975802;28;20093;-86
2022/10/20 01:42:02;;;;;;;12.83;5.30;;;5.60;99.90;;;;;;4974876;28;20043;-86
2022/10/20 01:44:30;;;;;;;12.47;5.17;;;5.50;99.90;;;;;;4973407;28;20062;-86
2022/10/20 01:46:57;;;;;;;13.87;5.40;;;5.50;99.90;;;;;;4973263;28;20054;-86
2022/10/20 01:49:24;;;;;;;14.57;5.30;;;5.50;99.90;;;;;;4973932;28;20568;-86
2022/10/20 01:51:50;;;;;;;16.90;5.70;;;5.50;99.90;;;;;;4975033;28;20478;-86
2022/10/20 01:54:27;;;;;;;15.40;5.50;;;5.50;99.90;;;;;;4973175;28;20043;-86
2022/10/20 01:57:18;;;;;;;12.87;5.83;;;6.20;99.90;;;;;;4974208;28;20050;-86
2022/10/20 02:00:02;;;;;;;14.60;5.80;;;5.50;99.90;;;;;;4983185;28;20046;-86
2022/10/20 02:02:34;;;;;;;11.67;5.00;;;5.50;99.90;;;;;;4974595;28;20051;-86
2022/10/20 02:05:06;;;;;;;14.60;5.63;;;5.80;99.90;;;;;;4973498;28;20082;-86
2022/10/20 02:07:32;;;;;;;13.03;5.70;;;5.50;99.90;;;;;;4974785;28;20047;-86
2022/10/20 02:10:17;;;;;;;15.33;5.73;;;5.50;99.90;;;;;;4972680;28;20050;-86
2022/10/20 02:12:46;;;;;;;16.40;5.70;;;5.50;99.90;;;;;;4973748;28;20049;-86
2022/10/20 02:15:16;;;;;;;14.63;6.03;;;5.50;99.90;;;;;;4974242;28;20044;-86
2022/10/20 02:28:32;;;;;;;13.10;5.80;;;4.60;99.90;;;;;;4973542;28;20062;-86
2022/10/20 02:31:13;;;;;;;12.90;5.70;;;5.90;99.90;;;;;;4974125;28;20101;-86
2022/10/20 02:33:56;;;;;;;14.70;6.40;;;5.30;99.90;;;;;;4962427;28;20058;-86
2022/10/20 02:36:36;;;;;;;;;;;;;;;;;;;;;
2022/10/20 02:39:11;;;;;;;13.73;5.93;;;5.50;99.90;;;;;;4935310;28;20083;-86
2022/10/20 02:41:37;;;;;;;16.17;6.50;;;5.80;99.90;;;;;;4957229;28;20156;-86
2022/10/20 02:44:03;;;;;;;14.03;5.87;;;5.20;99.90;;;;;;4973766;28;20050;-85
2022/10/20 02:46:29;;;;;;;16.30;6.17;;;5.30;99.90;;;;;;4956755;28;20099;-86
2022/10/20 02:48:54;;;;;;;18.47;6.77;;;5.30;99.90;;;;;;4957133;28;20050;-86
2022/10/20 02:51:20;;;;;;;16.80;6.20;;;5.30;99.90;;;;;;4972573;28;20042;-86
2022/10/20 02:53:46;;;;;;;14.77;6.23;;;5.30;99.90;;;;;;4971511;28;20090;-86
2022/10/20 02:56:11;;;;;;;17.73;7.10;;;5.30;99.90;;;;;;4973749;28;20073;-86
2022/10/20 02:58:37;;;;;;;14.73;7.00;;;5.30;99.90;;;;;;4956039;28;20078;-86
2022/10/20 03:01:03;;;;;;;16.80;6.80;;;5.30;99.90;;;;;;4974437;28;20121;-86
2022/10/20 03:03:29;;;;;;;16.77;7.10;;;5.30;99.90;;;;;;4955970;28;20054;-86
2022/10/20 03:06:05;;;;;;;13.07;6.30;;;5.30;99.90;;;;;;4973517;28;20070;-86
2022/10/20 03:08:30;;;;;;;13.67;6.83;;;6.60;99.90;;;;;;4974199;28;20122;-86
2022/10/20 03:10:56;;;;;;;19.93;7.40;;;5.40;99.90;;;;;;4960229;28;20114;-85
2022/10/20 03:13:21;;;;;;;16.00;7.63;;;5.30;99.90;;;;;;4979282;28;20082;-86
2022/10/20 03:15:47;;;;;;;15.03;6.63;;;5.40;99.90;;;;;;4974230;28;20117;-86
2022/10/20 03:18:13;;;;;;;15.83;7.40;;;5.30;99.90;;;;;;4972998;28;20043;-87
2022/10/20 03:20:38;;;;;;;16.53;7.53;;;6.10;99.90;;;;;;4973396;28;20051;-86
2022/10/20 03:23:22;;;;;;;18.27;10.03;;;5.40;99.90;;;;;;4975531;28;20405;-86
2022/10/20 03:26:00;;;;;;;17.50;7.97;;;5.40;99.90;;;;;;4975726;28;20062;-86
2022/10/20 03:28:26;;;;;;;17.43;8.17;;;5.20;99.90;;;;;;4956172;28;20333;-86
2022/10/20 03:30:51;;;;;;;17.27;8.07;;;5.30;99.90;;;;;;4974059;28;20039;-86
2022/10/20 03:33:17;;;;;;;16.40;7.70;;;5.40;99.90;;;;;;4955641;28;20444;-86
2022/10/20 03:36:01;;;;;;;16.77;8.70;;;5.80;99.90;;;;;;4973655;28;20130;-86
2022/10/20 03:38:27;;;;;;;20.17;9.05;;;5.10;99.90;;;;;;4973741;28;20051;-86
2022/10/20 03:40:53;;;;;;;18.27;8.40;;;5.40;99.90;;;;;;4959907;28;20438;-86
2022/10/20 03:46:14;;;;;;;19.40;9.33;;;5.40;99.90;;;;;;4961005;28;20051;-86
2022/10/20 03:48:55;;;;;;;17.03;8.23;;;5.10;99.90;;;;;;4983307;28;20058;-86
2022/10/20 03:51:29;;;;;;;17.53;8.83;;;5.10;99.90;;;;;;4979258;28;20545;-86
2022/10/20 03:53:55;;;;;;;18.50;8.23;;;5.80;99.90;;;;;;4959546;28;20055;-86
2022/10/20 03:56:21;;;;;;;18.60;8.83;;;6.00;99.90;;;;;;4936370;29;20051;-87
2022/10/20 03:58:47;;;;;;;17.27;8.83;;;5.10;99.90;;;;;;4936604;29;20059;-86
2022/10/20 04:01:17;;;;;;;18.87;9.23;;;5.80;99.90;;;;;;4935267;29;20067;-86
2022/10/20 04:03:46;;;;;;;18.07;10.00;;;5.40;99.90;;;;;;4921147;29;20051;-86
2022/10/20 04:06:12;;;;;;;20.47;9.40;;;5.40;99.90;;;;;;4937989;29;20047;-86
2022/10/20 04:08:38;;;;;;;22.63;10.30;;;5.40;99.90;;;;;;4954416;29;20059;-86
2022/10/20 04:13:35;;;;;;;20.33;9.63;;;5.40;99.90;;;;;;4975656;28;20059;-86
2022/10/20 04:16:00;;;;;;;20.37;9.50;;;5.40;99.90;;;;;;4959229;28;20066;-86
2022/10/20 04:18:26;;;;;;;19.50;9.43;;;5.40;99.90;;;;;;4959368;28;20069;-86
2022/10/20 04:20:51;;;;;;;19.50;9.10;;;5.40;99.90;;;;;;4963139;28;20057;-86
2022/10/20 04:23:17;;;;;;;19.07;9.17;;;5.40;99.90;;;;;;4979425;28;20046;-86
2022/10/20 04:25:47;;;;;;;20.60;10.30;;;5.40;99.90;;;;;;5000190;23;21431;-86
2022/10/20 04:28:15;;;;;;;20.07;9.70;;;5.40;99.90;;;;;;4976662;28;20098;-86
2022/10/20 04:30:41;;;;;;;18.50;9.83;;;5.40;99.90;;;;;;4958702;28;20050;-86
2022/10/20 04:33:07;;;;;;;18.27;9.70;;;5.50;99.90;;;;;;4959284;28;20051;-86
2022/10/20 04:35:32;;;;;;;20.43;9.80;;;5.50;99.90;;;;;;4958597;28;20047;-86
2022/10/20 04:38:01;;;;;;;20.03;10.27;;;5.40;99.90;;;;;;4976555;28;20046;-86
2022/10/20 04:40:36;;;;;;;18.10;9.87;;;5.40;99.90;;;;;;4959361;28;20133;-86
2022/10/20 04:43:02;;;;;;;19.43;10.10;;;5.50;99.90;;;;;;4976208;28;20042;-86
2022/10/20 04:45:42;;;;;;;21.70;9.87;;;5.20;99.90;;;;;;4976356;28;20150;-86
2022/10/20 04:48:14;;;;;;;18.30;9.70;;;5.70;99.90;;;;;;4976164;28;20051;-86
2022/10/20 04:50:40;;;;;;;19.63;10.33;;;5.70;99.90;;;;;;4975005;28;20043;-86
2022/10/20 04:53:08;;;;;;;22.03;10.50;;;5.40;99.90;;;;;;4958864;28;20046;-86
2022/10/20 04:55:35;;;;;;;19.50;10.47;;;5.40;99.90;;;;;;4976336;28;20045;-86
2022/10/20 04:58:06;;;;;;;20.47;10.40;;;5.10;99.90;;;;;;4984836;28;20051;-86
2022/10/20 05:00:43;;;;;;;20.00;10.53;;;6.80;99.90;;;;;;4959354;28;20058;-86
2022/10/20 05:03:24;;;;;;;20.27;10.50;;;6.30;99.90;;;;;;4976210;28;20039;-86
2022/10/20 05:06:09;;;;;;;21.40;10.63;;;5.30;99.90;;;;;;4958094;28;20051;-86
2022/10/20 05:08:35;;;;;;;21.87;11.30;;;7.00;99.90;;;;;;4985096;23;20054;-86
2022/10/20 05:11:01;;;;;;;22.67;11.43;;;5.40;99.90;;;;;;4994571;28;20180;-86
2022/10/20 05:13:29;;;;;;;20.57;10.63;;;5.40;99.90;;;;;;4977755;28;20050;-86
2022/10/20 05:15:54;;;;;;;21.80;11.07;;;5.40;99.90;;;;;;4977416;28;20061;-86
2022/10/20 05:18:20;;;;;;;21.63;10.77;;;5.40;99.90;;;;;;4994313;28;20133;-86
2022/10/20 05:20:46;;;;;;;20.10;10.57;;;5.30;99.90;;;;;;4977774;28;20406;-86
2022/10/20 05:23:11;;;;;;;19.20;10.70;;;5.40;99.90;;;;;;4977793;28;20154;-86
2022/10/20 05:25:38;;;;;;;20.40;10.87;;;5.30;99.90;;;;;;4977096;28;20548;-86
2022/10/20 05:28:04;;;;;;;23.43;11.70;;;5.30;99.90;;;;;;4977496;28;20061;-86
2022/10/20 05:30:30;;;;;;;21.53;11.07;;;5.30;99.90;;;;;;4994996;28;20065;-87
2022/10/20 05:33:01;;;;;;;24.03;11.13;;;5.30;99.90;;;;;;4977428;28;20474;-86
2022/10/20 05:38:02;;;;;;;23.20;11.17;;;5.20;99.90;;;;;;5408096;23;20063;-86
2022/10/20 05:40:27;;;;;;;20.60;11.30;;;5.20;99.90;;;;;;4974623;28;20521;-86
2022/10/20 05:42:53;;;;;;;20.40;11.33;;;5.20;99.90;;;;;;4958079;28;20061;-86
2022/10/20 05:45:19;;;;;;;21.97;11.43;;;5.20;99.90;;;;;;4957585;28;20046;-86
2022/10/20 05:47:44;;;;;;;20.67;11.20;;;5.20;99.90;;;;;;4956975;28;20054;-86
2022/10/20 05:50:12;;;;;;;19.70;10.80;;;5.20;99.90;;;;;;4956973;28;20043;-86
2022/10/20 05:52:38;;;;;;;22.40;11.90;;;5.20;99.90;;;;;;4957479;28;20058;-86
2022/10/20 05:55:04;;;;;;;21.63;11.33;;;5.20;99.90;;;;;;4974705;28;20038;-86
2022/10/20 05:57:29;;;;;;;24.20;12.07;;;5.10;99.90;;;;;;4957238;28;20082;-86
2022/10/20 05:59:55;;;;;;;21.93;11.47;;;5.20;99.90;;;;;;4974598;28;20437;-86
2022/10/20 06:02:21;;;;;;;24.43;11.97;;;5.10;99.90;;;;;;4974981;28;20551;-86
2022/10/20 06:04:49;;;;;;;23.03;12.20;;;5.10;99.90;;;;;;4974935;28;20062;-86
2022/10/20 06:07:18;;;;;;;23.37;12.20;;;5.10;99.90;;;;;;4956435;28;20046;-87
2022/10/20 06:09:44;;;;;;;22.77;12.60;;;5.10;99.90;;;;;;4975256;28;20065;-86
2022/10/20 06:12:09;;;;;;;22.07;11.87;;;5.10;99.90;;;;;;4957164;28;20112;-86
2022/10/20 06:14:35;;;;;;;24.47;11.87;;;5.20;99.90;;;;;;4956891;28;20046;-86
2022/10/20 06:17:00;;;;;;;22.73;11.97;;;5.10;99.90;;;;;;4975042;28;20404;-86
2022/10/20 06:19:26;;;;;;;23.27;12.47;;;5.10;99.90;;;;;;4957197;28;20137;-86
2022/10/20 06:21:52;;;;;;;24.20;12.23;;;5.20;99.90;;;;;;4974045;28;20085;-86
2022/10/20 06:24:18;;;;;;;23.03;12.37;;;5.20;99.90;;;;;;4956821;28;20047;-86
2022/10/20 06:26:44;;;;;;;21.77;12.70;;;5.90;99.90;;;;;;4974606;28;20045;-86
2022/10/20 06:29:13;;;;;;;22.20;12.23;;;5.20;99.90;;;;;;4973795;28;20043;-84
2022/10/20 06:31:44;;;;;;;22.40;11.50;;;5.20;99.90;;;;;;4956641;28;20046;-84
2022/10/20 06:34:13;;;;;;;23.53;11.77;;;5.30;99.90;;;;;;4974431;28;20105;-84
2022/10/20 06:36:40;;;;;;;25.07;11.80;;;5.30;99.90;;;;;;4973076;28;20042;-85
2022/10/20 06:39:10;;;;;;;21.23;11.40;;;5.40;99.90;;;;;;4974383;28;20090;-85
2022/10/20 06:41:35;;;;;;;25.67;12.80;;;5.40;99.90;;;;;;4974524;28;20082;-85
2022/10/20 06:44:01;;;;;;;23.03;12.07;;;5.40;99.90;;;;;;4976973;28;20062;-85
2022/10/20 06:46:29;;;;;;;22.27;11.97;;;5.50;99.90;;;;;;4974618;28;20049;-85
2022/10/20 06:52:27;;;;;;;21.37;11.03;;;5.70;99.90;;;;;;4952559;29;20054;-85
2022/10/20 06:54:52;;;;;;;24.40;11.43;;;5.40;99.90;;;;;;4955046;29;20211;-85
2022/10/20 06:57:37;;;;;;;21.13;11.30;;;6.20;99.90;;;;;;4936688;29;20058;-85
2022/10/20 07:00:03;;;;;;;22.03;11.77;;;5.70;99.90;;;;;;4937246;29;20182;-85
2022/10/20 07:02:29;;;;;;;22.97;11.20;;;5.80;99.90;;;;;;4954278;29;20083;-85
2022/10/20 07:04:54;;;;;;;21.17;11.87;;;5.80;99.90;;;;;;4953629;29;20137;-85
2022/10/20 07:07:20;;;;;;;20.77;11.27;;;5.90;99.90;;;;;;4936945;29;20486;-84
2022/10/20 07:09:46;;;;;;;20.83;10.77;;;5.90;99.90;;;;;;4937465;29;20117;-85
2022/10/20 07:12:18;;;;;;;21.17;11.33;;;6.00;99.90;;;;;;4936353;29;20053;-84
2022/10/20 07:14:53;;;;;;;20.23;11.17;;;6.10;99.90;;;;;;4936904;29;20047;-85
2022/10/20 07:24:41;;;;;;;20.20;10.87;;;6.40;99.90;;;;;;4953796;29;20038;-85
2022/10/20 07:27:24;;;;;;;43.20;13.18;;;6.40;99.90;;;;;;4936167;29;20087;-85
2022/10/20 07:30:16;;;;;;;19.97;10.53;;;7.50;99.90;;;;;;4937134;29;20074;-85
2022/10/20 07:32:42;;;;;;;20.83;10.63;;;5.90;99.90;;;;;;4936340;29;20051;-85
2022/10/20 07:35:15;;;;;;;21.90;10.87;;;6.30;99.90;;;;;;4936549;29;20150;-85
2022/10/20 07:37:40;;;;;;;19.05;10.73;;;8.20;99.90;;;;;;5002343;23;20069;-85
2022/10/20 07:40:07;;;;;;;20.43;9.97;;;6.60;99.90;;;;;;4971348;28;20491;-84
2022/10/20 07:42:32;;;;;;;18.53;10.00;;;6.70;99.90;;;;;;4967763;28;20046;-84
2022/10/20 07:44:58;;;;;;;20.57;10.33;;;6.80;99.90;;;;;;4985048;23;20054;-84
2022/10/20 07:47:25;;;;;;;18.87;9.73;;;6.80;99.90;;;;;;4953930;28;20051;-84
2022/10/20 07:50:02;;;;;;;22.23;10.83;;;6.90;99.90;;;;;;4954311;29;20043;-84
2022/10/20 07:52:48;;;;;;;18.17;10.23;;;7.00;99.90;;;;;;4936071;29;20143;-85
2022/10/20 07:55:29;;;;;;;19.70;10.23;;;6.20;99.90;;;;;;4971916;28;20042;-84
2022/10/20 07:58:11;;;;;;;19.63;9.53;;;7.00;99.90;;;;;;4971884;28;20474;-84
2022/10/20 08:00:42;;;;;;;18.70;9.63;;;8.40;99.90;;;;;;4972965;28;20089;-84
2022/10/20 08:03:20;;;;;;;16.57;9.37;;;8.30;99.90;;;;;;4955788;28;20043;-84
2022/10/20 08:06:02;;;;;;;17.93;8.97;;;7.30;99.90;;;;;;4973582;28;20058;-84
2022/10/20 08:08:46;;;;;;;16.90;8.63;;;8.90;99.90;;;;;;4955002;28;20141;-84
2022/10/20 08:11:18;;;;;;;16.27;9.00;;;8.60;99.90;;;;;;4955773;28;20105;-84
2022/10/20 08:14:02;;;;;;;17.47;8.70;;;8.10;99.90;;;;;;4971802;28;20514;-84
2022/10/20 08:16:28;;;;;;;20.60;9.00;;;7.00;99.90;;;;;;4955302;28;20039;-84
2022/10/20 08:19:09;;;;;;;17.57;9.40;;;7.60;99.90;;;;;;4972964;28;20113;-84
2022/10/20 08:21:53;;;;;;;19.37;8.87;;;7.60;99.90;;;;;;4954302;28;20069;-84
2022/10/20 08:24:19;;;;;;;15.77;8.38;;;8.70;99.90;;;;;;4955420;28;20559;-84
2022/10/20 08:26:51;;;;;;;18.47;9.10;;;7.70;99.90;;;;;;4975540;28;20174;-84
2022/10/20 08:29:36;;;;;;;15.83;8.40;;;7.60;99.90;;;;;;4957762;28;20410;-84
2022/10/20 08:32:17;;;;;;;16.13;8.60;;;7.60;99.90;;;;;;4961031;28;20039;-84
2022/10/20 08:34:54;;;;;;;16.20;7.97;;;7.30;99.90;;;;;;4958695;28;20047;-84
2022/10/20 08:37:20;;;;;;;17.57;8.07;;;6.90;99.90;;;;;;4957948;28;20137;-85
2022/10/20 08:39:55;;;;;;;16.77;9.20;;;7.20;99.90;;;;;;4959077;28;20468;-85
2022/10/20 08:42:48;;;;;;;17.50;8.30;;;7.80;99.90;;;;;;4957935;28;20051;-84
2022/10/20 08:53:34;;;;;;;15.80;8.23;;;8.70;99.90;;;;;;4975852;28;20117;-84
2022/10/20 08:56:13;;;;;;;18.27;8.67;;;7.80;99.90;;;;;;4957143;28;20046;-85
2022/10/20 08:58:43;;;;;;;16.20;9.20;;;9.60;99.90;;;;;;4958968;28;20090;-85
2022/10/20 09:01:22;;;;;;;16.00;8.13;;;8.70;99.90;;;;;;4958358;28;20057;-85
2022/10/20 09:04:02;;;;;;;17.38;8.30;;;8.70;99.90;;;;;;4970392;23;20062;-85
2022/10/20 09:06:28;;;;;;;15.20;8.45;;;8.90;99.90;;;;;;4955494;29;20085;-85
2022/10/20 09:09:00;;;;;;;13.63;8.07;;;8.90;99.90;;;;;;4939032;29;20074;-85
2022/10/20 09:11:36;;;;;;;17.08;7.70;;;9.00;99.90;;;;;;4919295;29;20048;-85
2022/10/20 09:14:02;;;;;;;16.38;7.82;;;9.10;99.90;;;;;;4922176;29;20451;-85
2022/10/20 09:22:31;;;;;;;15.80;8.15;;;9.20;99.90;;;;;;5317179;23;20055;-87
2022/10/20 09:25:04;;;;;;;13.45;7.50;;;8.90;99.90;;;;;;4935937;29;20047;-85
2022/10/20 09:27:48;;;;;;;16.13;7.80;;;9.20;99.90;;;;;;4919306;29;20138;-84
2022/10/20 09:33:46;;;;;;;;;;;10.30;99.90;;;;;;5048093;23;20051;-85
2022/10/20 09:43:18;;;;;;;15.80;7.78;;;9.90;99.90;;;;;;4953205;29;20487;-86
2022/10/20 09:46:10;;;;;;;13.32;7.50;;;10.00;99.90;;;;;;4926047;29;20052;-86
2022/10/20 09:52:32;;;;;;;12.65;6.78;;;10.30;99.90;;;;;;4953208;29;20051;-85
2022/10/20 09:55:54;;;;;;;15.02;7.57;;;10.30;99.90;;;;;;4954891;29;20146;-86
2022/10/20 09:58:32;;;;;;;13.67;7.70;;;10.40;99.90;;;;;;4954055;29;20087;-85
2022/10/20 10:01:29;;;;;;;11.38;6.40;;;11.20;99.90;;;;;;4950745;29;20518;-85
2022/10/20 10:04:00;;;;;;;15.50;7.38;;;10.60;99.90;;;;;;4906335;29;20067;-86
2022/10/20 10:06:55;;;;;;;12.38;7.13;;;10.50;99.90;;;;;;4913652;29;20540;-86
2022/10/20 10:09:31;;;;;;;14.63;6.75;;;10.70;99.90;;;;;;4940737;28;20059;-86
2022/10/20 10:12:56;;;;;;;13.75;6.88;;;11.80;99.90;;;;;;4953115;29;20039;-86
2022/10/20 10:15:21;;;;;;;12.88;6.90;;;10.20;99.90;;;;;;4913609;29;20056;-86
2022/10/20 10:17:50;;;;;;;13.02;6.80;;;11.60;99.90;;;;;;4899448;29;20062;-87
2022/10/20 10:20:16;;;;;;;13.68;7.10;;;10.80;99.90;;;;;;4933662;28;20130;-87
2022/10/20 10:22:42;;;;;;;13.93;6.75;;;11.80;99.90;;;;;;4954422;29;20170;-86
2022/10/20 10:25:23;;;;;;;16.40;7.20;;;12.40;99.90;;;;;;4954026;29;20043;-86
2022/10/20 10:28:17;;;;;;;15.07;7.13;;;11.10;99.90;;;;;;4953241;29;20133;-85
2022/10/20 10:30:42;;;;;;;13.48;7.38;;;11.20;99.90;;;;;;4955402;29;20498;-86
2022/10/20 10:33:25;;;;;;;13.02;6.20;;;11.40;99.90;;;;;;4954939;29;20083;-86
2022/10/20 10:35:51;;;;;;;14.25;6.72;;;12.60;99.90;;;;;;4952697;28;20082;-86
2022/10/20 10:38:17;;;;;;;11.90;6.20;;;11.90;99.90;;;;;;4953590;29;20050;-86
2022/10/20 10:41:17;;;;;;;13.18;6.43;;;13.20;99.90;;;;;;4953310;28;20043;-86
2022/10/20 10:44:33;;;;;;;16.50;6.72;;;12.50;99.90;;;;;;4953631;29;20055;-87
2022/10/20 10:47:35;;;;;;;13.85;7.30;;;12.60;99.90;;;;;;4953553;28;20051;-85
2022/10/20 10:50:30;;;;;;;12.98;6.70;;;12.90;99.90;;;;;;4953811;28;20055;-86
2022/10/20 10:53:15;;;;;;;13.15;6.50;;;13.10;99.90;;;;;;4953798;29;20137;-85
2022/10/20 10:56:32;;;;;;;12.18;6.80;;;13.20;99.90;;;;;;4952725;29;20074;-86
2022/10/20 10:59:22;;;;;;;12.48;6.80;;;13.20;99.90;;;;;;4954952;28;20050;-85
2022/10/20 11:01:50;;;;;;;13.15;6.80;;;13.00;99.90;;;;;;4944632;28;20403;-86
2022/10/20 11:04:24;;;;;;;12.00;6.40;;;13.00;99.90;;;;;;4944075;28;20120;-85
2022/10/20 11:07:29;;;;;;;13.93;6.43;;;12.40;99.90;;;;;;4947198;28;20075;-86
2022/10/20 11:10:13;;;;;;;11.73;6.50;;;12.90;99.90;;;;;;4941304;28;20091;-86
2022/10/20 11:12:47;;;;;;;11.63;6.32;;;13.00;99.90;;;;;;4944041;28;20043;-86
2022/10/20 11:15:31;;;;;;;13.75;6.60;;;13.50;99.90;;;;;;4943222;28;20036;-87
2022/10/20 11:18:15;;;;;;;11.43;6.30;;;13.20;99.90;;;;;;4943088;28;20044;-86
2022/10/20 11:21:25;;;;;;;12.68;6.43;;;13.40;99.90;;;;;;4951313;29;20081;-87
2022/10/20 11:24:46;;;;;;;14.13;6.85;;;13.50;99.90;;;;;;4951068;28;20577;-86
2022/10/20 11:31:17;;;;;;;13.60;7.20;;;13.30;99.90;;;;;;4951511;29;20526;-87
2022/10/20 11:33:56;;;;;;;13.52;6.90;;;13.90;99.90;;;;;;4935804;29;20098;-86
2022/10/20 11:40:52;;;;;;;;;;;;;;;;;;;;;
2022/10/20 11:44:29;;;;;;;13.13;6.93;;;14.20;99.90;;;;;;4953881;28;20049;-87
2022/10/20 11:51:24;;;;;;;14.55;7.45;;;13.20;99.90;;;;;;4954216;29;20038;-86
2022/10/20 11:54:24;;;;;;;13.25;7.38;;;13.10;99.90;;;;;;4936383;29;20051;-86
2022/10/20 11:57:30;;;;;;;14.50;7.22;;;13.10;99.90;;;;;;4954359;28;20073;-86
2022/10/20 12:00:33;;;;;;;15.80;7.40;;;13.10;99.90;;;;;;4954103;28;20495;-86
2022/10/20 12:10:59;;;;;;;15.20;7.72;;;13.00;99.90;;;;;;4957535;29;20038;-86
2022/10/20 12:13:43;;;;;;;14.52;7.63;;;13.20;99.90;;;;;;4957041;28;20051;-86
2022/10/20 12:16:09;;;;;;;14.07;8.00;;;12.80;99.90;;;;;;4940092;29;20044;-86
2022/10/20 12:19:25;;;;;;;13.23;7.75;;;12.80;99.90;;;;;;4940705;29;20051;-86
2022/10/20 12:25:04;;;;;;;15.10;7.95;;;12.70;99.90;;;;;;5248364;23;20058;-86
2022/10/20 12:27:31;;;;;;;14.25;8.05;;;13.30;99.90;;;;;;4977808;28;20101;-85
2022/10/20 12:30:34;;;;;;;14.05;7.68;;;13.70;99.90;;;;;;4996277;28;20045;-86
2022/10/20 12:33:46;;;;;;;14.65;8.48;;;12.60;99.90;;;;;;4978512;28;20046;-86
2022/10/20 12:40:07;;;;;;;16.35;8.40;;;12.50;99.90;;;;;;4996226;28;20046;-86
2022/10/20 12:43:08;;;;;;;17.17;8.35;;;13.50;99.90;;;;;;4995243;28;20137;-87
2022/10/20 12:46:06;;;;;;;15.30;8.65;;;12.40;99.90;;;;;;4996331;28;20050;-86
2022/10/20 12:48:37;;;;;;;14.85;8.68;;;12.40;99.90;;;;;;4995362;28;20053;-86
2022/10/20 12:51:07;;;;;;;15.55;8.75;;;12.20;99.90;;;;;;4978764;28;20085;-86
2022/10/20 12:54:27;;;;;;;15.32;8.88;;;12.20;99.90;;;;;;4992304;28;20110;-86
2022/10/20 12:57:40;;;;;;;16.10;8.60;;;12.10;99.90;;;;;;4900614;29;20060;-86
2022/10/20 13:00:22;;;;;;;16.58;9.05;;;12.10;99.90;;;;;;4939211;28;20649;-87
2022/10/20 13:03:34;;;;;;;16.38;9.38;;;12.20;99.90;;;;;;4994871;28;20034;-86
2022/10/20 13:06:22;;;;;;;18.77;9.27;;;12.10;99.90;;;;;;4977684;28;20046;-86
2022/10/20 13:09:24;;;;;;;16.35;8.60;;;12.00;99.90;;;;;;4995563;28;20061;-86
2022/10/20 13:11:56;;;;;;;16.88;9.48;;;11.90;99.90;;;;;;4994674;28;20047;-86
2022/10/20 13:14:29;;;;;;;17.48;9.55;;;11.90;99.90;;;;;;4990525;23;20051;-86
2022/10/20 13:17:10;;;;;;;17.33;9.77;;;11.90;99.90;;;;;;4974270;28;20096;-86
2022/10/20 13:19:56;;;;;;;19.48;9.90;;;12.90;99.90;;;;;;4974690;28;20039;-86
2022/10/20 13:22:41;;;;;;;17.65;10.07;;;11.80;99.90;;;;;;4974760;28;20051;-86
2022/10/20 13:25:52;;;;;;;16.92;9.65;;;11.80;99.90;;;;;;4974095;28;20046;-86
2022/10/20 13:28:23;;;;;;;20.60;9.57;;;11.90;99.90;;;;;;4958597;28;20090;-85
2022/10/20 13:30:54;;;;;;;16.60;9.82;;;11.80;99.90;;;;;;4975230;28;20042;-85
2022/10/20 13:36:35;;;;;;;17.77;9.88;;;11.90;99.90;;;;;;4973858;28;20054;-85
2022/10/20 13:39:04;;;;;;;20.90;10.27;;;11.90;99.90;;;;;;4915795;28;20403;-86
2022/10/20 13:41:35;;;;;;;18.50;10.55;;;11.90;99.90;;;;;;4975251;28;20042;-85
2022/10/20 13:44:28;;;;;;;17.08;9.80;;;11.90;99.90;;;;;;4975280;28;20074;-85
2022/10/20 13:46:56;;;;;;;18.02;10.15;;;11.90;99.90;;;;;;4958096;28;20046;-86
2022/10/20 13:49:49;;;;;;;20.40;10.40;;;11.90;99.90;;;;;;4957367;28;20101;-85
2022/10/20 13:52:16;;;;;;;22.10;12.05;;;11.90;99.90;;;;;;4973771;28;20399;-86
2022/10/20 13:54:45;;;;;;;21.13;11.27;;;12.70;99.90;;;;;;4975529;28;20383;-85
2022/10/20 13:57:27;;;;;;;21.50;11.27;;;11.90;99.90;;;;;;4975084;28;20065;-86
2022/10/20 14:00:02;;;;;;;22.60;11.98;;;11.90;99.90;;;;;;4957289;28;20403;-85
2022/10/20 14:02:33;;;;;;;22.23;11.25;;;11.90;99.90;;;;;;4957153;28;20042;-85
2022/10/20 14:05:09;;;;;;;23.17;12.00;;;11.80;99.90;;;;;;4957674;28;20046;-85
2022/10/20 14:07:41;;;;;;;22.45;11.65;;;11.80;99.90;;;;;;4957401;28;20050;-85
2022/10/20 14:10:32;;;;;;;29.42;12.70;;;12.70;99.90;;;;;;4957869;28;20050;-85
2022/10/20 14:13:17;;;;;;;23.00;12.52;;;12.70;99.90;;;;;;4974395;28;20166;-85
2022/10/20 14:19:37;;;;;;;23.85;12.40;;;11.60;99.90;;;;;;4973751;28;20045;-85
2022/10/20 14:22:58;;;;;;;23.52;12.82;;;12.70;99.90;;;;;;4974640;28;20479;-85
2022/10/20 14:35:42;;;;;;;23.65;12.93;;;11.70;99.90;;;;;;5184983;23;20120;-85
2022/10/20 14:38:23;;;;;;;22.08;12.25;;;11.80;99.90;;;;;;4975926;28;20051;-85
2022/10/20 14:40:54;;;;;;;24.17;13.57;;;11.80;99.90;;;;;;4975591;28;20053;-85
2022/10/20 14:43:28;;;;;;;26.15;14.02;;;11.80;99.90;;;;;;4975869;28;20129;-85
2022/10/20 14:46:07;;;;;;;23.58;13.25;;;11.80;99.90;;;;;;4993336;28;20478;-85
2022/10/20 14:55:45;;;;;;;23.80;13.68;;;11.20;99.90;;;;;;4992249;28;20423;-87
2022/10/20 14:58:56;;;;;;;27.45;14.25;;;13.20;99.90;;;;;;4975425;28;20034;-85
2022/10/20 15:01:30;;;;;;;24.77;14.10;;;12.10;99.90;;;;;;4968570;28;20054;-86
2022/10/20 15:04:20;;;;;;;24.33;13.95;;;11.90;99.90;;;;;;4988806;28;20046;-85
2022/10/20 15:06:46;;;;;;;24.88;14.30;;;12.10;99.90;;;;;;4978466;28;20074;-85
2022/10/20 15:09:37;;;;;;;27.42;14.75;;;12.10;99.90;;;;;;4972340;28;20109;-85
2022/10/20 15:12:15;;;;;;;26.17;14.05;;;12.80;99.90;;;;;;4973591;28;20051;-86
2022/10/20 15:15:01;;;;;;;25.17;14.00;;;12.20;99.90;;;;;;5008002;23;20051;-87
2022/10/20 15:17:31;;;;;;;24.77;13.45;;;12.10;99.90;;;;;;4953606;28;20039;-87